createdAt,value
2022-08-18T00:01:35.321Z,2.33
2022-08-18T00:04:03.376Z,2.05
2022-08-18T00:06:40.964Z,2.10
2022-08-18T00:09:10.267Z,1.45
2022-08-18T00:11:42.243Z,2.15
2022-08-18T00:14:21.228Z,2.75
2022-08-18T00:16:51.596Z,1.95
2022-08-18T00:19:18.374Z,2.15
2022-08-18T00:21:45.005Z,2.83
2022-08-18T00:24:11.696Z,2.58
2022-08-18T00:26:38.298Z,1.92
2022-08-18T00:29:05.193Z,3.05
2022-08-18T00:31:32.482Z,4.10
2022-08-18T00:34:00.566Z,3.83
2022-08-18T00:36:27.967Z,2.00
2022-08-18T00:38:54.882Z,2.75
2022-08-18T00:41:21.772Z,2.00
2022-08-18T00:43:51.292Z,1.92
2022-08-18T00:46:23.361Z,4.57
2022-08-18T00:48:50.421Z,1.83
2022-08-18T00:51:27.905Z,2.22
2022-08-18T00:54:26.791Z,3.30
2022-08-18T00:56:58.136Z,2.45
2022-08-18T00:59:32.048Z,2.33
2022-08-18T01:02:02.744Z,2.42
2022-08-18T01:04:45.231Z,2.00
2022-08-18T01:07:20.614Z,1.45
2022-08-18T01:09:51.682Z,2.10
2022-08-18T01:12:45.257Z,2.30
2022-08-18T01:15:07.009Z,4.30
2022-08-18T01:17:52.387Z,1.75
2022-08-18T01:20:46.200Z,2.25
2022-08-18T01:23:15.750Z,2.55
2022-08-18T01:26:01.983Z,2.50
2022-08-18T01:28:35.020Z,2.33
2022-08-18T01:31:02.695Z,3.03
2022-08-18T01:33:33.229Z,4.20
2022-08-18T01:36:07.712Z,2.35
2022-08-18T01:38:34.318Z,2.20
2022-08-18T01:41:28.432Z,3.00
2022-08-18T01:43:49.660Z,3.28
2022-08-18T01:46:21.025Z,2.85
2022-08-18T01:48:49.096Z,3.95
2022-08-18T01:51:16.871Z,2.67
2022-08-18T01:53:43.576Z,2.45
2022-08-18T01:56:10.361Z,4.10
2022-08-18T01:58:37.116Z,2.35
2022-08-18T02:01:04.971Z,2.40
2022-08-18T02:03:37.113Z,4.32
2022-08-18T02:06:09.958Z,2.20
2022-08-18T02:08:38.747Z,4.18
2022-08-18T02:11:09.449Z,1.80
2022-08-18T02:13:36.547Z,3.22
2022-08-18T02:16:04.431Z,3.47
2022-08-18T02:18:47.922Z,5.22
2022-08-18T02:21:19.056Z,3.42
2022-08-18T02:23:52.973Z,5.43
2022-08-18T02:26:20.529Z,2.67
2022-08-18T02:28:47.130Z,2.90
2022-08-18T02:31:17.555Z,3.33
2022-08-18T02:33:51.969Z,4.60
2022-08-18T02:36:20.107Z,3.30
2022-08-18T02:38:54.884Z,2.50
2022-08-18T02:41:29.360Z,3.65
2022-08-18T02:43:56.909Z,3.22
2022-08-18T02:46:23.671Z,2.38
2022-08-18T02:48:56.999Z,2.47
2022-08-18T02:51:23.651Z,2.72
2022-08-18T02:53:54.017Z,2.53
2022-08-18T02:56:41.430Z,2.60
2022-08-18T02:59:15.247Z,4.10
2022-08-18T03:01:45.616Z,2.80
2022-08-18T03:04:16.019Z,5.75
2022-08-18T03:06:44.390Z,3.63
2022-08-18T03:09:14.032Z,2.30
2022-08-18T03:11:41.470Z,2.40
2022-08-18T03:14:11.465Z,2.45
2022-08-18T03:16:52.892Z,3.88
2022-08-18T03:19:22.875Z,3.08
2022-08-18T03:21:49.466Z,3.42
2022-08-18T03:24:22.664Z,2.83
2022-08-18T03:26:51.526Z,7.70
2022-08-18T03:29:18.270Z,2.63
2022-08-18T03:31:45.676Z,4.78
2022-08-18T03:34:12.829Z,2.75
2022-08-18T03:36:39.936Z,4.65
2022-08-18T03:39:09.330Z,4.25
2022-08-18T03:41:59.090Z,4.28
2022-08-18T03:44:28.248Z,3.47
2022-08-18T03:46:54.970Z,4.97
2022-08-18T03:49:21.802Z,3.95
2022-08-18T03:51:48.976Z,6.97
2022-08-18T03:54:18.141Z,3.85
2022-08-18T03:56:46.426Z,2.60
2022-08-18T03:59:21.962Z,5.65
2022-08-18T04:01:50.811Z,3.22
2022-08-18T04:04:20.507Z,12.82
2022-08-18T04:06:57.122Z,5.88
2022-08-18T04:09:25.881Z,4.28
2022-08-18T04:11:53.127Z,3.75
2022-08-18T04:14:22.253Z,3.60
2022-08-18T04:16:49.455Z,4.63
2022-08-18T04:19:27.396Z,10.32
2022-08-18T04:21:56.835Z,3.28
2022-08-18T04:24:26.190Z,5.93
2022-08-18T04:26:53.354Z,6.40
2022-08-18T04:29:23.889Z,3.95
2022-08-18T04:31:52.196Z,3.00
2022-08-18T04:34:20.848Z,4.47
2022-08-18T04:36:47.630Z,4.72
2022-08-18T04:39:14.218Z,4.15
2022-08-18T04:41:43.687Z,6.30
2022-08-18T04:44:12.294Z,4.18
2022-08-18T04:46:44.779Z,3.83
2022-08-18T04:49:12.111Z,6.10
2022-08-18T04:52:34.243Z,3.50
2022-08-18T04:54:31.570Z,4.20
2022-08-18T04:56:58.337Z,7.53
2022-08-18T04:59:25.442Z,3.67
2022-08-18T05:01:52.137Z,5.30
2022-08-18T05:04:18.799Z,4.90
2022-08-18T05:06:46.370Z,5.78
2022-08-18T05:09:16.745Z,10.68
2022-08-18T05:11:50.725Z,8.27
2022-08-18T05:14:18.792Z,4.90
2022-08-18T05:16:48.459Z,7.90
2022-08-18T05:19:26.030Z,7.10
2022-08-18T05:22:00.079Z,6.50
2022-08-18T05:24:36.851Z,7.85
2022-08-18T05:27:05.513Z,6.47
2022-08-18T05:29:41.735Z,8.27
2022-08-18T05:32:37.355Z,5.80
2022-08-18T05:35:12.562Z,4.80
2022-08-18T05:38:14.039Z,10.18
2022-08-18T05:40:41.878Z,5.05
2022-08-18T05:43:10.389Z,7.78
2022-08-18T05:45:38.307Z,5.22
2022-08-18T05:48:05.205Z,9.23
2022-08-18T05:50:36.676Z,5.75
2022-08-18T05:53:14.081Z,7.55
2022-08-18T05:56:02.401Z,6.97
2022-08-18T05:58:33.911Z,8.38
2022-08-18T06:01:42.145Z,6.78
2022-08-18T06:04:31.147Z,6.25
2022-08-18T06:07:04.343Z,9.38
2022-08-18T06:09:44.378Z,9.35
2022-08-18T06:12:27.365Z,10.68
2022-08-18T06:15:05.648Z,8.07
2022-08-18T06:17:49.426Z,8.82
2022-08-18T06:20:42.887Z,8.48
2022-08-18T06:23:35.698Z,6.22
2022-08-18T06:26:21.856Z,10.75
2022-08-18T06:29:16.750Z,9.55
2022-08-18T06:32:09.688Z,10.00
2022-08-18T06:34:55.484Z,16.52
2022-08-18T06:37:33.524Z,9.82
2022-08-18T06:40:00.532Z,8.68
2022-08-18T06:42:31.278Z,9.82
2022-08-18T06:45:03.468Z,9.32
2022-08-18T06:47:41.089Z,9.52
2022-08-18T06:50:18.312Z,9.63
2022-08-18T06:53:02.340Z,10.68
2022-08-18T06:55:42.911Z,12.98
2022-08-18T06:58:13.598Z,8.90
2022-08-18T07:00:56.329Z,14.05
2022-08-18T07:03:41.296Z,11.52
2022-08-18T07:06:11.578Z,13.20
2022-08-18T07:08:41.419Z,11.98
2022-08-18T07:11:22.597Z,9.70
2022-08-18T07:14:09.452Z,10.85
2022-08-18T07:19:30.148Z,9.82
2022-08-18T07:22:08.655Z,12.43
2022-08-18T07:24:50.702Z,12.82
2022-08-18T07:27:21.747Z,11.70
2022-08-18T07:30:08.184Z,13.95
2022-08-18T07:32:48.258Z,14.93
2022-08-18T07:35:19.734Z,12.10
2022-08-18T07:37:56.445Z,14.75
2022-08-18T07:40:39.075Z,16.85
2022-08-18T07:43:17.670Z,14.30
2022-08-18T07:45:46.936Z,13.55
2022-08-18T07:48:38.806Z,11.48
2022-08-18T07:51:09.926Z,14.00
2022-08-18T07:53:39.576Z,15.10
2022-08-18T07:56:19.030Z,13.45
2022-08-18T07:59:11.929Z,12.93
2022-08-18T08:02:13.594Z,15.52
2022-08-18T08:05:17.642Z,14.50
2022-08-18T08:08:14.954Z,14.80
2022-08-18T08:11:23.101Z,14.52
2022-08-18T08:14:27.097Z,12.95
2022-08-18T08:16:53.673Z,13.07
2022-08-18T08:19:31.714Z,11.82
2022-08-18T08:22:19.636Z,16.13
2022-08-18T08:24:49.004Z,14.85
2022-08-18T08:27:30.226Z,15.75
2022-08-18T08:30:10.699Z,18.15
2022-08-18T08:32:51.493Z,19.90
2022-08-18T08:35:50.482Z,13.52
2022-08-18T08:38:44.403Z,16.50
2022-08-18T08:41:20.815Z,16.35
2022-08-18T08:44:09.369Z,17.67
2022-08-18T08:46:47.570Z,16.73
2022-08-18T08:49:54.766Z,16.42
2022-08-18T08:52:35.267Z,14.20
2022-08-18T08:55:11.603Z,17.42
2022-08-18T08:57:45.880Z,20.73
2022-08-18T09:00:15.225Z,18.80
2022-08-18T09:02:54.032Z,22.52
2022-08-18T09:05:28.801Z,18.20
2022-08-18T09:08:22.813Z,19.17
2022-08-18T09:11:19.175Z,24.38
2022-08-18T09:14:11.683Z,18.35
2022-08-18T09:16:57.126Z,24.88
2022-08-18T09:19:45.731Z,18.45
2022-08-18T09:22:42.517Z,19.15
2022-08-18T09:25:29.349Z,21.67
2022-08-18T09:28:11.049Z,18.67
2022-08-18T09:31:02.374Z,24.70
2022-08-18T09:36:36.789Z,20.13
2022-08-18T09:39:24.968Z,26.35
2022-08-18T09:41:56.964Z,28.02
2022-08-18T09:44:48.453Z,20.83
2022-08-18T09:47:21.756Z,26.35
2022-08-18T09:49:57.170Z,23.70
2022-08-18T09:55:16.546Z,24.00
2022-08-18T09:57:44.794Z,21.15
2022-08-18T10:00:13.304Z,21.80
2022-08-18T10:02:41.604Z,23.30
2022-08-18T10:05:21.194Z,19.63
2022-08-18T10:07:54.405Z,18.98
2022-08-18T10:11:02.227Z,21.40
2022-08-18T10:13:21.620Z,18.17
2022-08-18T10:15:54.703Z,22.42
2022-08-18T10:18:39.547Z,27.23
2022-08-18T10:21:20.938Z,22.90
2022-08-18T10:24:08.186Z,25.83
2022-08-18T10:26:41.279Z,23.98
2022-08-18T10:29:24.111Z,21.58
2022-08-18T10:31:57.539Z,22.75
2022-08-18T10:34:51.702Z,22.67
2022-08-18T10:37:26.686Z,19.23
2022-08-18T10:39:59.924Z,21.67
2022-08-18T10:42:33.827Z,25.23
2022-08-18T10:48:24.488Z,26.52
2022-08-18T10:51:04.445Z,18.52
2022-08-18T10:53:51.184Z,22.17
2022-08-18T10:56:36.755Z,15.68
2022-08-18T10:59:16.307Z,21.50
2022-08-18T11:01:55.441Z,21.17
2022-08-18T11:04:34.672Z,17.75
2022-08-18T11:07:19.253Z,17.38
2022-08-18T11:10:04.621Z,17.38
2022-08-18T11:13:03.301Z,15.85
2022-08-18T11:16:15.459Z,15.55
2022-08-18T11:18:53.025Z,18.05
2022-08-18T11:21:43.322Z,23.60
2022-08-18T11:24:10.222Z,16.75
2022-08-18T11:26:45.025Z,16.15
2022-08-18T11:29:23.895Z,15.60
2022-08-18T11:32:17.915Z,17.00
2022-08-18T11:34:53.378Z,17.55
2022-08-18T11:37:49.003Z,16.60
2022-08-18T11:40:51.409Z,16.63
2022-08-18T11:43:25.469Z,14.57
2022-08-18T11:46:00.420Z,15.63
2022-08-18T11:48:51.600Z,16.83
2022-08-18T11:51:25.277Z,21.65
2022-08-18T11:54:00.726Z,21.25
2022-08-18T11:56:30.986Z,20.38
2022-08-18T11:59:02.614Z,18.38
2022-08-18T12:01:41.591Z,16.13
2022-08-18T12:04:14.827Z,20.38
2022-08-18T12:07:11.475Z,20.70
2022-08-18T12:10:16.010Z,19.40
2022-08-18T12:12:51.975Z,19.30
2022-08-18T12:15:24.550Z,20.23
2022-08-18T12:17:53.054Z,22.23
2022-08-18T12:20:21.916Z,19.10
2022-08-18T12:22:50.085Z,16.70
2022-08-18T12:25:25.299Z,19.27
2022-08-18T12:27:53.276Z,20.75
2022-08-18T12:30:20.191Z,23.52
2022-08-18T12:32:49.739Z,20.00
2022-08-18T12:35:21.921Z,23.00
2022-08-18T12:38:13.048Z,21.23
2022-08-18T12:40:35.991Z,21.17
2022-08-18T12:43:02.776Z,19.38
2022-08-18T12:45:31.385Z,18.77
2022-08-18T12:47:59.730Z,32.95
2022-08-18T12:50:30.791Z,23.40
2022-08-18T12:52:57.700Z,21.35
2022-08-18T12:55:24.388Z,17.17
2022-08-18T12:57:53.209Z,20.50
2022-08-18T13:00:27.793Z,17.25
2022-08-18T13:02:55.863Z,25.40
2022-08-18T13:05:26.570Z,17.83
2022-08-18T13:08:04.500Z,20.98
2022-08-18T13:10:45.772Z,19.88
2022-08-18T13:13:18.739Z,22.17
2022-08-18T13:15:55.500Z,21.50
2022-08-18T13:18:27.295Z,17.20
2022-08-18T13:20:58.431Z,20.75
2022-08-18T13:23:27.510Z,17.90
2022-08-18T13:26:01.558Z,20.67
2022-08-18T13:28:35.540Z,18.83
2022-08-18T13:31:05.581Z,20.08
2022-08-18T13:33:56.062Z,21.85
2022-08-18T13:36:20.552Z,18.63
2022-08-18T13:38:50.445Z,17.30
2022-08-18T13:41:17.099Z,17.60
2022-08-18T13:43:44.884Z,18.77
2022-08-18T13:46:18.456Z,19.88
2022-08-18T13:48:46.936Z,21.40
2022-08-18T13:51:24.638Z,20.75
2022-08-18T13:54:15.924Z,21.45
2022-08-18T13:56:39.776Z,21.60
2022-08-18T13:59:06.582Z,17.83
2022-08-18T14:01:44.544Z,19.35
2022-08-18T14:04:20.187Z,20.08
2022-08-18T14:06:51.033Z,18.10
2022-08-18T14:09:27.862Z,16.38
2022-08-18T14:12:15.960Z,18.35
2022-08-18T14:14:52.061Z,17.30
2022-08-18T14:17:19.736Z,16.13
2022-08-18T14:20:10.321Z,16.95
2022-08-18T14:22:56.205Z,19.13
2022-08-18T14:25:49.637Z,16.52
2022-08-18T14:28:24.777Z,16.98
2022-08-18T14:30:54.897Z,16.23
2022-08-18T14:33:34.309Z,16.63
2022-08-18T14:36:10.238Z,19.55
2022-08-18T14:38:38.201Z,17.58
2022-08-18T14:41:07.467Z,16.42
2022-08-18T14:44:04.027Z,18.63
2022-08-18T14:46:23.793Z,17.10
2022-08-18T14:48:57.238Z,15.55
2022-08-18T14:51:27.115Z,13.77
2022-08-18T14:53:54.487Z,12.10
2022-08-18T14:56:24.383Z,14.52
2022-08-18T14:58:55.838Z,16.27
2022-08-18T15:01:23.482Z,16.15
2022-08-18T15:03:50.286Z,14.23
2022-08-18T15:06:23.101Z,15.13
2022-08-18T15:08:54.768Z,17.13
2022-08-18T15:11:25.040Z,17.52
2022-08-18T15:13:51.748Z,15.73
2022-08-18T15:16:26.909Z,17.23
2022-08-18T15:18:58.331Z,15.38
2022-08-18T15:21:43.475Z,12.57
2022-08-18T15:24:28.456Z,13.90
2022-08-18T15:27:05.761Z,11.98
2022-08-18T15:29:33.817Z,12.05
2022-08-18T15:32:06.112Z,13.45
2022-08-18T15:34:46.971Z,12.63
2022-08-18T15:37:19.312Z,12.45
2022-08-18T15:39:46.793Z,11.88
2022-08-18T15:42:19.251Z,14.30
2022-08-18T15:44:47.394Z,13.02
2022-08-18T15:47:20.932Z,17.02
2022-08-18T15:49:48.024Z,12.57
2022-08-18T15:52:17.856Z,12.98
2022-08-18T15:54:50.267Z,13.57
2022-08-18T15:57:39.004Z,14.02
2022-08-18T16:00:05.864Z,13.93
2022-08-18T16:02:32.478Z,13.52
2022-08-18T16:05:10.208Z,15.02
2022-08-18T16:07:40.978Z,12.77
2022-08-18T16:10:13.027Z,13.40
2022-08-18T16:12:45.776Z,13.77
2022-08-18T16:15:15.689Z,17.77
2022-08-18T16:17:47.782Z,15.13
2022-08-18T16:20:14.796Z,16.13
2022-08-18T16:22:41.850Z,12.25
2022-08-18T16:25:09.659Z,18.08
2022-08-18T16:27:36.868Z,14.20
2022-08-18T16:30:06.567Z,15.13
2022-08-18T16:32:33.363Z,14.13
2022-08-18T16:35:00.119Z,12.65
2022-08-18T16:37:27.647Z,11.13
2022-08-18T16:39:54.868Z,11.85
2022-08-18T16:42:22.220Z,12.57
2022-08-18T16:44:48.935Z,11.10
2022-08-18T16:47:17.870Z,10.68
2022-08-18T16:49:48.660Z,11.68
2022-08-18T16:52:16.123Z,9.15
2022-08-18T16:54:45.121Z,10.13
2022-08-18T16:57:11.862Z,10.63
2022-08-18T16:59:57.681Z,9.88
2022-08-18T17:02:43.857Z,12.35
2022-08-18T17:05:12.396Z,16.90
2022-08-18T17:07:39.071Z,9.45
2022-08-18T17:10:06.230Z,8.93
2022-08-18T17:12:33.114Z,9.32
2022-08-18T17:14:59.813Z,9.32
2022-08-18T17:17:26.433Z,10.90
2022-08-18T17:19:53.594Z,9.25
2022-08-18T17:22:20.326Z,7.85
2022-08-18T17:24:49.608Z,9.50
2022-08-18T17:27:26.994Z,11.80
2022-08-18T17:30:11.677Z,8.77
2022-08-18T17:32:46.208Z,8.35
2022-08-18T17:35:29.447Z,10.00
2022-08-18T17:38:11.701Z,9.73
2022-08-18T17:40:54.388Z,7.22
2022-08-18T17:43:29.194Z,8.73
2022-08-18T17:46:04.958Z,7.97
2022-08-18T17:48:38.022Z,8.57
2022-08-18T17:51:30.130Z,6.75
2022-08-18T17:54:01.292Z,9.85
2022-08-18T17:56:38.111Z,9.38
2022-08-18T17:59:42.926Z,8.18
2022-08-18T18:02:29.759Z,7.63
2022-08-18T18:05:00.603Z,9.85
2022-08-18T18:07:31.929Z,7.32
2022-08-18T18:10:12.083Z,8.43
2022-08-18T18:12:39.089Z,7.15
2022-08-18T18:15:10.217Z,9.77
2022-08-18T18:17:39.193Z,7.38
2022-08-18T18:20:38.119Z,8.13
2022-08-18T18:23:22.819Z,9.00
2022-08-18T18:25:50.336Z,7.82
2022-08-18T18:28:35.248Z,8.38
2022-08-18T18:31:18.655Z,9.10
2022-08-18T18:33:45.613Z,7.60
2022-08-18T18:36:12.101Z,8.32
2022-08-18T18:38:46.122Z,7.78
2022-08-18T18:41:12.545Z,8.93
2022-08-18T18:43:46.813Z,10.13
2022-08-18T18:46:23.205Z,6.78
2022-08-18T18:49:11.088Z,7.97
2022-08-18T18:52:17.457Z,7.65
2022-08-18T18:54:54.313Z,9.32
2022-08-18T18:57:23.599Z,7.25
2022-08-18T19:00:19.760Z,7.20
2022-08-18T19:03:17.811Z,8.63
2022-08-18T19:05:56.286Z,13.73
2022-08-18T19:08:45.602Z,9.38
2022-08-18T19:11:30.565Z,11.95
2022-08-18T19:14:07.261Z,9.77
2022-08-18T19:16:41.040Z,10.40
2022-08-18T19:19:37.210Z,8.90
2022-08-18T19:22:54.406Z,9.48
2022-08-18T19:25:28.399Z,10.70
2022-08-18T19:28:00.096Z,10.48
2022-08-18T19:30:27.661Z,9.60
2022-08-18T19:33:00.467Z,7.40
2022-08-18T19:35:42.015Z,11.05
2022-08-18T19:38:20.964Z,9.77
2022-08-18T19:40:52.936Z,9.02
2022-08-18T19:43:40.613Z,9.00
2022-08-18T19:46:36.952Z,8.02
2022-08-18T19:49:19.455Z,10.85
2022-08-18T19:51:49.887Z,8.70
2022-08-18T19:54:26.354Z,8.07
2022-08-18T19:57:22.229Z,10.20
2022-08-18T20:00:13.026Z,11.73
2022-08-18T20:03:04.301Z,12.32
2022-08-18T20:05:54.997Z,13.85
2022-08-18T20:08:40.030Z,10.90
2022-08-18T20:11:20.947Z,13.93
2022-08-18T20:14:11.988Z,14.10
2022-08-18T20:16:44.257Z,13.75
2022-08-18T20:19:35.539Z,14.90
2022-08-18T20:22:06.549Z,17.73
2022-08-18T20:24:45.314Z,16.38
2022-08-18T20:27:36.079Z,15.57
2022-08-18T20:30:28.409Z,16.08
2022-08-18T20:33:07.475Z,11.93
2022-08-18T20:35:47.212Z,12.98
2022-08-18T20:38:18.261Z,13.52
2022-08-18T20:40:51.309Z,15.35
2022-08-18T20:43:33.329Z,12.80
2022-08-18T20:46:32.577Z,12.98
2022-08-18T20:49:06.229Z,15.13
2022-08-18T20:51:42.532Z,16.23
2022-08-18T20:54:57.197Z,14.60
2022-08-18T20:57:25.384Z,16.33
2022-08-18T21:00:14.220Z,14.10
2022-08-18T21:02:47.474Z,12.68
2022-08-18T21:05:18.300Z,18.38
2022-08-18T21:08:05.478Z,14.48
2022-08-18T21:10:34.428Z,14.98
2022-08-18T21:13:04.704Z,15.52
2022-08-18T21:15:37.147Z,15.05
2022-08-18T21:18:19.479Z,14.75
2022-08-18T21:20:54.217Z,12.88
2022-08-18T21:23:30.944Z,15.93
2022-08-18T21:26:06.502Z,17.23
2022-08-18T21:28:35.561Z,16.30
2022-08-18T21:31:42.481Z,14.07
2022-08-18T21:34:30.012Z,15.80
2022-08-18T21:36:58.229Z,13.70
2022-08-18T21:39:25.569Z,15.05
2022-08-18T21:41:55.094Z,13.32
2022-08-18T21:44:25.527Z,11.50
2022-08-18T21:47:05.669Z,16.13
2022-08-18T21:49:33.962Z,14.65
2022-08-18T21:52:01.279Z,13.98
2022-08-18T21:54:34.578Z,16.38
2022-08-18T21:57:25.671Z,15.88
2022-08-18T22:00:14.926Z,14.10
2022-08-18T22:02:41.578Z,16.98
2022-08-18T22:05:10.387Z,15.48
2022-08-18T22:07:37.263Z,15.50
2022-08-18T22:10:42.003Z,16.25
2022-08-18T22:13:38.137Z,13.80
2022-08-18T22:16:22.878Z,16.60
2022-08-18T22:18:49.800Z,17.33
2022-08-18T22:21:36.815Z,17.02
2022-08-18T22:24:19.392Z,17.70
2022-08-18T22:26:50.550Z,12.88
2022-08-18T22:29:27.090Z,13.48
2022-08-18T22:31:54.812Z,13.98
2022-08-18T22:34:27.903Z,15.15
2022-08-18T22:37:02.114Z,19.13
2022-08-18T22:39:30.386Z,17.55
2022-08-18T22:41:57.714Z,14.15
2022-08-18T22:44:24.979Z,19.90
2022-08-18T22:46:52.744Z,17.95
2022-08-18T22:49:21.006Z,14.65
2022-08-18T22:51:50.001Z,17.13
2022-08-18T22:54:18.575Z,18.00
2022-08-18T22:56:56.319Z,15.02
2022-08-18T22:59:26.783Z,15.70
2022-08-18T23:01:54.018Z,14.38
2022-08-18T23:04:22.872Z,16.73
2022-08-18T23:06:53.667Z,16.00
2022-08-18T23:09:26.282Z,13.40
2022-08-18T23:11:55.078Z,14.50
2022-08-18T23:14:22.440Z,14.70
2022-08-18T23:16:49.784Z,13.02
2022-08-18T23:19:18.895Z,12.23
2022-08-18T23:21:46.205Z,12.63
2022-08-18T23:24:15.545Z,11.68
2022-08-18T23:26:42.559Z,15.88
2022-08-18T23:29:11.601Z,14.55
2022-08-18T23:31:40.973Z,10.80
2022-08-18T23:34:09.882Z,11.30
2022-08-18T23:36:40.295Z,12.55
2022-08-18T23:39:10.508Z,11.50
2022-08-18T23:41:38.360Z,14.68
2022-08-18T23:44:06.802Z,14.73
2022-08-18T23:46:34.441Z,12.90
2022-08-18T23:49:02.759Z,14.05
2022-08-18T23:51:34.896Z,13.43
2022-08-18T23:54:06.422Z,14.55
2022-08-18T23:56:34.246Z,13.00
2022-08-18T23:59:03.775Z,13.38
